Cable Innovator — MVEP4 — position and weather

sailwx.info

Track history (hours):
 
Tides and Currents Weather Stations Pressure Air Temp Water Temp Dewpoint Dewpoint Depression Visibility Wind Speed Wind Dir Waves Ship Positions

Cable Innovator

Last reported at 2016-Sep-28 12:29 UTC. Time now 2016-Sep-29 05:01 UTC.
Position N 48°25' W 123°23'.

Length 145.5 m; beam 24 m; draft 8.3 m.

Type: Other ship. MMSI: 233933000.

Date/timePositionNaut miles runAvg speedWind from/ knotsBaromVisibWave heightAir tempDewpointWater temp
2016-Sep-28 12:29N 48°25' W 123°23'0 0.0
2016-Sep-28 08:22N 48°25' W 123°23'0 0.0
2016-Sep-28 03:28N 48°25' W 123°23'0 0.0
2016-Sep-28 02:28N 48°25' W 123°23'0 0.0
2016-Sep-28 01:28N 48°25' W 123°23'0 0.0
2016-Sep-27 23:28N 48°25' W 123°23'0 0.0
2016-Sep-27 19:10N 48°25' W 123°23'0 0.0
2016-Sep-27 13:16N 48°25' W 123°23'0 0.0
2016-Sep-27 10:16N 48°25' W 123°23'0 0.0
2016-Sep-27 00:31N 48°25' W 123°23'0 0.0
2016-Sep-26 20:25N 48°25' W 123°23'0 0.0
2016-Sep-26 19:31N 48°25' W 123°23'0 0.0
2016-Sep-26 13:16N 48°25' W 123°23'0 0.0
2016-Sep-26 11:31N 48°25' W 123°23'0 0.0
2016-Sep-26 08:28N 48°25' W 123°23'0 0.0
2016-Sep-26 01:23N 48°25' W 123°23'0 0.0
2016-Sep-26 00:07N 48°25' W 123°23'0 0.0
2016-Sep-25 21:28N 48°25' W 123°23'0 0.0
2016-Sep-25 17:32N 48°25' W 123°23'2 2.3
2016-Sep-25 16:34N 48°24' W 123°27'0 0.2
2016-Sep-25 15:33N 48°24' W 123°27'0 0.0
2016-Sep-25 14:33N 48°24' W 123°27'0 0.0
2016-Sep-25 12:33N 48°24' W 123°27'0 0.0
2016-Sep-25 11:33N 48°24' W 123°27'0 0.0
2016-Sep-25 10:33N 48°24' W 123°27'0 0.0
2016-Sep-25 09:24N 48°24' W 123°27'0 0.0
2016-Sep-25 07:30N 48°24' W 123°27'0 0.0
2016-Sep-25 04:33N 48°24' W 123°27'0 0.0
2016-Sep-25 00:32N 48°24' W 123°27'0 0.0
2016-Sep-24 22:32N 48°24' W 123°27'0 0.0
2016-Sep-24 21:32N 48°24' W 123°27'0 0.0
2016-Sep-24 19:32N 48°24' W 123°27'0 0.0
2016-Sep-24 18:32N 48°24' W 123°27'0 0.0
2016-Sep-24 17:32N 48°24' W 123°27'0 0.0
2016-Sep-24 16:29N 48°24' W 123°27'0 0.0
2016-Sep-24 14:32N 48°24' W 123°27'0 0.0
2016-Sep-24 12:32N 48°24' W 123°27'0 0.0
2016-Sep-24 10:32N 48°24' W 123°27'0 0.0
2016-Sep-24 09:29N 48°24' W 123°27'0 0.0
2016-Sep-24 03:26N 48°24' W 123°27'0 0.1
2016-Sep-24 02:32N 48°24' W 123°27'0 0.0
2016-Sep-24 01:33N 48°24' W 123°27'2 2.3
2016-Sep-24 00:33N 48°25' W 123°23'0 0.0
2016-Sep-23 19:33N 48°25' W 123°23'0 0.0
2016-Sep-23 17:33N 48°25' W 123°23'0 0.0
2016-Sep-23 16:33N 48°25' W 123°23'0 0.0
2016-Sep-23 15:33N 48°25' W 123°23'0 0.0
2016-Sep-23 13:30N 48°25' W 123°23'0 0.0
2016-Sep-23 09:22N 48°25' W 123°23'0 0.0
2016-Sep-23 06:30N 48°25' W 123°23'0 0.0
2016-Sep-23 04:24N 48°25' W 123°23'0 0.0
2016-Sep-23 03:33N 48°25' W 123°23'0 0.0
2016-Sep-23 02:33N 48°25' W 123°23'0 0.0
2016-Sep-23 01:30N 48°25' W 123°23'0 0.0
2016-Sep-22 12:24N 48°25' W 123°23'0 0.0
2016-Sep-22 04:30N 48°25' W 123°23'0 0.0
2016-Sep-22 03:30N 48°25' W 123°23'0 0.0
2016-Sep-22 00:27N 48°25' W 123°23'0 0.0
2016-Sep-21 23:13N 48°25' W 123°23'0 0.0
2016-Sep-21 22:31N 48°25' W 123°23'0 0.0
2016-Sep-21 19:31N 48°25' W 123°23'0 0.0
2016-Sep-21 16:25N 48°25' W 123°23'0 0.0
2016-Sep-21 09:19N 48°25' W 123°23'0 0.0
2016-Sep-21 08:31N 48°25' W 123°23'0 0.0
2016-Sep-21 05:31N 48°25' W 123°23'0 0.0
2016-Sep-21 03:31N 48°25' W 123°23'0 0.0
2016-Sep-21 02:31N 48°25' W 123°23'0 0.0
2016-Sep-20 17:31N 48°25' W 123°23'0 0.0
2016-Sep-20 14:31N 48°25' W 123°23'0 0.0
2016-Sep-20 13:31N 48°25' W 123°23'0 0.0
2016-Sep-20 10:31N 48°25' W 123°23'0 0.0
2016-Sep-20 08:30N 48°25' W 123°23'0 0.0
2016-Sep-20 07:33N 48°25' W 123°23'0 0.0
2016-Sep-20 06:33N 48°25' W 123°23'0 0.0
2016-Sep-20 02:31N 48°25' W 123°23'0 0.0
2016-Sep-19 23:24N 48°25' W 123°23'0 0.0
2016-Sep-19 19:33N 48°25' W 123°24'6 5.8
2016-Sep-19 18:33N 48°19' W 123°24'18 9.1
2016-Sep-19 16:32N 48°13' W 123°51'19 9.6
2016-Sep-19 14:33N 48°20' W 124°17'1010.1
2016-Sep-19 13:33N 48°25' W 124°31'10 9.9
2016-Sep-19 12:34N 48°29' W 124°45'1010.3
2016-Sep-19 11:34N 48°29' W 125°00'2110.4
2016-Sep-19 09:33N 48°25' W 125°31'814.0
2016-Sep-19 09:00N 48°18' W 125°36'6510.9 150 / 141018.5 5.4 1.015.013.915.0
2016-Sep-19 03:00N 48°06' W 127°12'7111.8 220 / 51019.510.8 1.516.513.915.0
2016-Sep-18 21:00N 47°48' W 128°54'7512.5 160 / 31019.510.8 2.021.015.918.0
2016-Sep-18 15:00N 47°30' W 130°42'   340 / 61019.710.8 2.017.014.615.0
Track history (hours):
 
Tides and Currents Weather Stations Pressure Air Temp Water Temp Dewpoint Dewpoint Depression Visibility Wind Speed Wind Dir Waves Ship Positions

Cable Innovator

Last reported at 2016-Sep-28 12:29 UTC. Time now 2016-Sep-29 05:01 UTC.
Position N 48°25' W 123°23'.

Length 145.5 m; beam 24 m; draft 8.3 m.

Type: Other ship. MMSI: 233933000.

Date/timePositionNaut miles runAvg speedWind from/ knotsBaromVisibWave heightAir tempDewpointWater temp
2016-Sep-28 12:29N 48°25' W 123°23'0 0.0
2016-Sep-28 08:22N 48°25' W 123°23'0 0.0
2016-Sep-28 03:28N 48°25' W 123°23'0 0.0
2016-Sep-28 02:28N 48°25' W 123°23'0 0.0
2016-Sep-28 01:28N 48°25' W 123°23'0 0.0
2016-Sep-27 23:28N 48°25' W 123°23'0 0.0
2016-Sep-27 19:10N 48°25' W 123°23'0 0.0
2016-Sep-27 13:16N 48°25' W 123°23'0 0.0
2016-Sep-27 10:16N 48°25' W 123°23'0 0.0
2016-Sep-27 00:31N 48°25' W 123°23'0 0.0
2016-Sep-26 20:25N 48°25' W 123°23'0 0.0
2016-Sep-26 19:31N 48°25' W 123°23'0 0.0
2016-Sep-26 13:16N 48°25' W 123°23'0 0.0
2016-Sep-26 11:31N 48°25' W 123°23'0 0.0
2016-Sep-26 08:28N 48°25' W 123°23'0 0.0
2016-Sep-26 01:23N 48°25' W 123°23'0 0.0
2016-Sep-26 00:07N 48°25' W 123°23'0 0.0
2016-Sep-25 21:28N 48°25' W 123°23'0 0.0
2016-Sep-25 17:32N 48°25' W 123°23'2 2.3
2016-Sep-25 16:34N 48°24' W 123°27'0 0.2
2016-Sep-25 15:33N 48°24' W 123°27'0 0.0
2016-Sep-25 14:33N 48°24' W 123°27'0 0.0
2016-Sep-25 12:33N 48°24' W 123°27'0 0.0
2016-Sep-25 11:33N 48°24' W 123°27'0 0.0
2016-Sep-25 10:33N 48°24' W 123°27'0 0.0
2016-Sep-25 09:24N 48°24' W 123°27'0 0.0
2016-Sep-25 07:30N 48°24' W 123°27'0 0.0
2016-Sep-25 04:33N 48°24' W 123°27'0 0.0
2016-Sep-25 00:32N 48°24' W 123°27'0 0.0
2016-Sep-24 22:32N 48°24' W 123°27'0 0.0
2016-Sep-24 21:32N 48°24' W 123°27'0 0.0
2016-Sep-24 19:32N 48°24' W 123°27'0 0.0
2016-Sep-24 18:32N 48°24' W 123°27'0 0.0
2016-Sep-24 17:32N 48°24' W 123°27'0 0.0
2016-Sep-24 16:29N 48°24' W 123°27'0 0.0
2016-Sep-24 14:32N 48°24' W 123°27'0 0.0
2016-Sep-24 12:32N 48°24' W 123°27'0 0.0
2016-Sep-24 10:32N 48°24' W 123°27'0 0.0
2016-Sep-24 09:29N 48°24' W 123°27'0 0.0
2016-Sep-24 03:26N 48°24' W 123°27'0 0.1
2016-Sep-24 02:32N 48°24' W 123°27'0 0.0
2016-Sep-24 01:33N 48°24' W 123°27'2 2.3
2016-Sep-24 00:33N 48°25' W 123°23'0 0.0
2016-Sep-23 19:33N 48°25' W 123°23'0 0.0
2016-Sep-23 17:33N 48°25' W 123°23'0 0.0
2016-Sep-23 16:33N 48°25' W 123°23'0 0.0
2016-Sep-23 15:33N 48°25' W 123°23'0 0.0
2016-Sep-23 13:30N 48°25' W 123°23'0 0.0
2016-Sep-23 09:22N 48°25' W 123°23'0 0.0
2016-Sep-23 06:30N 48°25' W 123°23'0 0.0
2016-Sep-23 04:24N 48°25' W 123°23'0 0.0
2016-Sep-23 03:33N 48°25' W 123°23'0 0.0
2016-Sep-23 02:33N 48°25' W 123°23'0 0.0
2016-Sep-23 01:30N 48°25' W 123°23'0 0.0
2016-Sep-22 12:24N 48°25' W 123°23'0 0.0
2016-Sep-22 04:30N 48°25' W 123°23'0 0.0
2016-Sep-22 03:30N 48°25' W 123°23'0 0.0
2016-Sep-22 00:27N 48°25' W 123°23'0 0.0
2016-Sep-21 23:13N 48°25' W 123°23'0 0.0
2016-Sep-21 22:31N 48°25' W 123°23'0 0.0
2016-Sep-21 19:31N 48°25' W 123°23'0 0.0
2016-Sep-21 16:25N 48°25' W 123°23'0 0.0
2016-Sep-21 09:19N 48°25' W 123°23'0 0.0
2016-Sep-21 08:31N 48°25' W 123°23'0 0.0
2016-Sep-21 05:31N 48°25' W 123°23'0 0.0
2016-Sep-21 03:31N 48°25' W 123°23'0 0.0
2016-Sep-21 02:31N 48°25' W 123°23'0 0.0
2016-Sep-20 17:31N 48°25' W 123°23'0 0.0
2016-Sep-20 14:31N 48°25' W 123°23'0 0.0
2016-Sep-20 13:31N 48°25' W 123°23'0 0.0
2016-Sep-20 10:31N 48°25' W 123°23'0 0.0
2016-Sep-20 08:30N 48°25' W 123°23'0 0.0
2016-Sep-20 07:33N 48°25' W 123°23'0 0.0
2016-Sep-20 06:33N 48°25' W 123°23'0 0.0
2016-Sep-20 02:31N 48°25' W 123°23'0 0.0
2016-Sep-19 23:24N 48°25' W 123°23'0 0.0
2016-Sep-19 19:33N 48°25' W 123°24'6 5.8
2016-Sep-19 18:33N 48°19' W 123°24'18 9.1
2016-Sep-19 16:32N 48°13' W 123°51'19 9.6
2016-Sep-19 14:33N 48°20' W 124°17'1010.1
2016-Sep-19 13:33N 48°25' W 124°31'10 9.9
2016-Sep-19 12:34N 48°29' W 124°45'1010.3
2016-Sep-19 11:34N 48°29' W 125°00'2110.4
2016-Sep-19 09:33N 48°25' W 125°31'814.0
2016-Sep-19 09:00N 48°18' W 125°36'6510.9 150 / 141018.5 5.4 1.015.013.915.0
2016-Sep-19 03:00N 48°06' W 127°12'7111.8 220 / 51019.510.8 1.516.513.915.0
2016-Sep-18 21:00N 47°48' W 128°54'7512.5 160 / 31019.510.8 2.021.015.918.0
2016-Sep-18 15:00N 47°30' W 130°42'   340 / 61019.710.8 2.017.014.615.0

Dump ship's entire track history